sensor_id;sensor_type;location;lat;lon;timestamp;pressure;altitude;pressure_sealevel;temperature;humidity
11880;BME280;5999;43.256;27.816;2022-07-01T08:32:15;100112.84;;;29.79;63.75
11880;BME280;5999;43.256;27.816;2022-07-01T08:34:42;100110.53;;;29.83;63.12
11880;BME280;5999;43.256;27.816;2022-07-01T08:37:09;100119.78;;;30.72;63.16
11880;BME280;5999;43.256;27.816;2022-07-01T08:39:36;100121.63;;;30.64;62.47
11880;BME280;5999;43.256;27.816;2022-07-01T08:42:04;100123.88;;;30.54;65.06
11880;BME280;5999;43.256;27.816;2022-07-01T08:44:33;100120.69;;;30.37;66.78
11880;BME280;5999;43.256;27.816;2022-07-01T08:47:01;100124.06;;;31.21;62.61
11880;BME280;5999;43.256;27.816;2022-07-01T08:49:32;100132.69;;;30.15;62.31
11880;BME280;5999;43.256;27.816;2022-07-01T08:51:59;100126.44;;;30.21;61.20
11880;BME280;5999;43.256;27.816;2022-07-01T08:54:26;100125.31;;;30.02;63.51
11880;BME280;5999;43.256;27.816;2022-07-01T08:56:52;100124.03;;;29.98;63.58
11880;BME280;5999;43.256;27.816;2022-07-01T08:59:24;100135.13;;;30.10;65.62
11880;BME280;5999;43.256;27.816;2022-07-01T09:01:58;100122.00;;;30.13;66.34
11880;BME280;5999;43.256;27.816;2022-07-01T09:04:26;100134.09;;;30.04;69.34
11880;BME280;5999;43.256;27.816;2022-07-01T09:07:00;100121.25;;;29.63;70.22
11880;BME280;5999;43.256;27.816;2022-07-01T09:09:27;100123.06;;;30.54;69.78
11880;BME280;5999;43.256;27.816;2022-07-01T09:11:55;100131.81;;;30.49;71.13
11880;BME280;5999;43.256;27.816;2022-07-01T09:14:23;100135.19;;;29.81;72.59
11880;BME280;5999;43.256;27.816;2022-07-01T09:16:52;100131.84;;;30.14;76.47
11880;BME280;5999;43.256;27.816;2022-07-01T09:19:22;100121.84;;;30.21;72.51
11880;BME280;5999;43.256;27.816;2022-07-01T09:21:49;100133.16;;;29.90;75.94
11880;BME280;5999;43.256;27.816;2022-07-01T09:24:26;100131.00;;;30.49;82.37
11880;BME280;5999;43.256;27.816;2022-07-01T09:26:55;100130.03;;;30.28;83.31
11880;BME280;5999;43.256;27.816;2022-07-01T09:29:26;100133.41;;;29.67;86.85
11880;BME280;5999;43.256;27.816;2022-07-01T09:31:53;100133.34;;;29.89;88.16
11880;BME280;5999;43.256;27.816;2022-07-01T09:34:20;100120.22;;;30.82;89.42
11880;BME280;5999;43.256;27.816;2022-07-01T09:36:57;100122.19;;;29.77;96.40
11880;BME280;5999;43.256;27.816;2022-07-01T09:39:25;100130.63;;;29.89;100.00
11880;BME280;5999;43.256;27.816;2022-07-01T09:41:55;100130.31;;;30.40;99.87
11880;BME280;5999;43.256;27.816;2022-07-01T09:44:22;100127.28;;;29.87;100.00
11880;BME280;5999;43.256;27.816;2022-07-01T09:46:53;100137.81;;;30.03;100.00
11880;BME280;5999;43.256;27.816;2022-07-01T09:49:20;100126.56;;;29.50;100.00
11880;BME280;5999;43.256;27.816;2022-07-01T09:51:48;100128.34;;;29.64;100.00
11880;BME280;5999;43.256;27.816;2022-07-01T09:54:16;100128.03;;;29.74;100.00
11880;BME280;5999;43.256;27.816;2022-07-01T09:56:44;100118.19;;;29.44;100.00
11880;BME280;5999;43.256;27.816;2022-07-01T09:59:11;100121.69;;;29.38;100.00
11880;BME280;5999;43.256;27.816;2022-07-01T10:01:39;100130.16;;;29.29;100.00
11880;BME280;5999;43.256;27.816;2022-07-01T10:04:07;100131.78;;;28.87;100.00
11880;BME280;5999;43.256;27.816;2022-07-01T10:07:04;100125.56;;;29.29;100.00
11880;BME280;5999;43.256;27.816;2022-07-01T10:09:52;100120.41;;;29.13;100.00
11880;BME280;5999;43.256;27.816;2022-07-01T10:12:34;100124.16;;;29.12;100.00
11880;BME280;5999;43.256;27.816;2022-07-01T10:15:03;100117.78;;;29.04;100.00
11880;BME280;5999;43.256;27.816;2022-07-01T10:17:34;100115.13;;;28.68;100.00
11880;BME280;5999;43.256;27.816;2022-07-01T10:20:08;100124.59;;;28.79;100.00
11880;BME280;5999;43.256;27.816;2022-07-01T10:22:37;100118.53;;;28.55;100.00
11880;BME280;5999;43.256;27.816;2022-07-01T10:25:29;100130.50;;;28.82;100.00
11880;BME280;5999;43.256;27.816;2022-07-01T10:28:17;100139.13;;;29.51;100.00
11880;BME280;5999;43.256;27.816;2022-07-01T10:30:59;100127.63;;;29.27;100.00
11880;BME280;5999;43.256;27.816;2022-07-01T10:33:43;100129.84;;;29.17;100.00
11880;BME280;5999;43.256;27.816;2022-07-01T10:36:13;100131.50;;;29.68;100.00
11880;BME280;5999;43.256;27.816;2022-07-01T10:39:07;100126.44;;;29.58;100.00
11880;BME280;5999;43.256;27.816;2022-07-01T10:41:37;100124.09;;;30.18;100.00
11880;BME280;5999;43.256;27.816;2022-07-01T10:44:07;100124.22;;;30.31;100.00
11880;BME280;5999;43.256;27.816;2022-07-01T10:46:41;100123.16;;;29.97;100.00
11880;BME280;5999;43.256;27.816;2022-07-01T10:49:11;100124.06;;;30.04;100.00
11880;BME280;5999;43.256;27.816;2022-07-01T10:51:46;100117.00;;;30.58;100.00
11880;BME280;5999;43.256;27.816;2022-07-01T10:56:56;100129.75;;;30.58;100.00
11880;BME280;5999;43.256;27.816;2022-07-01T10:59:23;100127.41;;;30.48;100.00
11880;BME280;5999;43.256;27.816;2022-07-01T11:01:50;100128.22;;;30.00;100.00
11880;BME280;5999;43.256;27.816;2022-07-01T11:04:17;100123.75;;;29.64;100.00
11880;BME280;5999;43.256;27.816;2022-07-01T11:06:44;100121.16;;;30.06;100.00
11880;BME280;5999;43.256;27.816;2022-07-01T11:09:12;100119.41;;;29.92;100.00
11880;BME280;5999;43.256;27.816;2022-07-01T11:11:39;100115.16;;;29.82;100.00
11880;BME280;5999;43.256;27.816;2022-07-01T11:14:06;100116.34;;;30.08;100.00
11880;BME280;5999;43.256;27.816;2022-07-01T11:16:34;100106.34;;;29.52;100.00
11880;BME280;5999;43.256;27.816;2022-07-01T11:19:01;100106.78;;;29.77;100.00
11880;BME280;5999;43.256;27.816;2022-07-01T11:21:28;100104.97;;;29.63;100.00
11880;BME280;5999;43.256;27.816;2022-07-01T11:23:58;100114.75;;;29.86;100.00
11880;BME280;5999;43.256;27.816;2022-07-01T11:26:25;100109.53;;;29.62;100.00
11880;BME280;5999;43.256;27.816;2022-07-01T11:28:52;100113.63;;;29.73;100.00
11880;BME280;5999;43.256;27.816;2022-07-01T11:31:29;100104.19;;;29.69;100.00
11880;BME280;5999;43.256;27.816;2022-07-01T11:33:57;100100.47;;;30.12;100.00
11880;BME280;5999;43.256;27.816;2022-07-01T11:36:24;100094.50;;;29.81;100.00
11880;BME280;5999;43.256;27.816;2022-07-01T11:39:17;100097.94;;;29.40;100.00
11880;BME280;5999;43.256;27.816;2022-07-01T11:41:53;100098.63;;;30.12;100.00
11880;BME280;5999;43.256;27.816;2022-07-01T11:44:29;100099.09;;;29.31;100.00
11880;BME280;5999;43.256;27.816;2022-07-01T11:46:56;100107.88;;;29.33;100.00
11880;BME280;5999;43.256;27.816;2022-07-01T11:49:23;100102.06;;;29.15;100.00
11880;BME280;5999;43.256;27.816;2022-07-01T11:51:55;100093.41;;;29.76;100.00
11880;BME280;5999;43.256;27.816;2022-07-01T11:54:22;100085.56;;;29.66;100.00
11880;BME280;5999;43.256;27.816;2022-07-01T11:56:50;100085.34;;;29.61;100.00
11880;BME280;5999;43.256;27.816;2022-07-01T11:59:17;100085.03;;;29.21;100.00
11880;BME280;5999;43.256;27.816;2022-07-01T12:01:51;100093.22;;;29.06;100.00
11880;BME280;5999;43.256;27.816;2022-07-01T12:04:19;100096.38;;;29.31;100.00
11880;BME280;5999;43.256;27.816;2022-07-01T12:06:47;100091.75;;;29.03;100.00
11880;BME280;5999;43.256;27.816;2022-07-01T12:09:15;100094.00;;;29.00;100.00
11880;BME280;5999;43.256;27.816;2022-07-01T12:11:44;100085.06;;;29.28;100.00
11880;BME280;5999;43.256;27.816;2022-07-01T12:14:18;100087.06;;;29.40;100.00
11880;BME280;5999;43.256;27.816;2022-07-01T12:16:46;100082.28;;;29.42;100.00
11880;BME280;5999;43.256;27.816;2022-07-01T12:19:13;100086.03;;;29.41;100.00
11880;BME280;5999;43.256;27.816;2022-07-01T12:21:52;100086.06;;;29.48;100.00
11880;BME280;5999;43.256;27.816;2022-07-01T12:24:20;100085.47;;;29.24;100.00
11880;BME280;5999;43.256;27.816;2022-07-01T12:26:50;100081.25;;;29.00;100.00
11880;BME280;5999;43.256;27.816;2022-07-01T12:29:18;100082.31;;;28.99;100.00
11880;BME280;5999;43.256;27.816;2022-07-01T12:31:55;100070.31;;;29.30;100.00
11880;BME280;5999;43.256;27.816;2022-07-01T12:34:22;100073.31;;;29.14;100.00
11880;BME280;5999;43.256;27.816;2022-07-01T12:36:50;100070.03;;;29.25;100.00
11880;BME280;5999;43.256;27.816;2022-07-01T12:39:17;100068.34;;;29.02;100.00
11880;BME280;5999;43.256;27.816;2022-07-01T12:41:50;100067.84;;;28.92;100.00
11880;BME280;5999;43.256;27.816;2022-07-01T12:44:24;100069.66;;;29.28;100.00
11880;BME280;5999;43.256;27.816;2022-07-01T12:46:52;100062.56;;;30.32;100.00
11880;BME280;5999;43.256;27.816;2022-07-01T12:49:21;100067.03;;;30.04;100.00
11880;BME280;5999;43.256;27.816;2022-07-01T12:51:49;100073.44;;;29.90;100.00
11880;BME280;5999;43.256;27.816;2022-07-01T12:54:33;100079.09;;;28.89;100.00
11880;BME280;5999;43.256;27.816;2022-07-01T12:57:01;100083.19;;;28.63;100.00
11880;BME280;5999;43.256;27.816;2022-07-01T12:59:28;100082.03;;;28.36;100.00
11880;BME280;5999;43.256;27.816;2022-07-01T13:01:55;100085.88;;;28.12;100.00
11880;BME280;5999;43.256;27.816;2022-07-01T13:04:27;100100.22;;;28.57;100.00
11880;BME280;5999;43.256;27.816;2022-07-01T13:06:54;100102.88;;;28.06;100.00
11880;BME280;5999;43.256;27.816;2022-07-01T13:09:21;100090.63;;;28.25;100.00
11880;BME280;5999;43.256;27.816;2022-07-01T13:11:49;100091.81;;;28.37;100.00
11880;BME280;5999;43.256;27.816;2022-07-01T13:14:16;100093.53;;;28.09;100.00
11880;BME280;5999;43.256;27.816;2022-07-01T13:16:43;100096.31;;;28.30;100.00
11880;BME280;5999;43.256;27.816;2022-07-01T13:19:10;100092.00;;;28.51;100.00
11880;BME280;5999;43.256;27.816;2022-07-01T13:21:37;100085.41;;;28.09;100.00
11880;BME280;5999;43.256;27.816;2022-07-01T13:24:04;100094.09;;;28.04;100.00
11880;BME280;5999;43.256;27.816;2022-07-01T13:26:31;100098.38;;;28.13;100.00
11880;BME280;5999;43.256;27.816;2022-07-01T13:28:58;100085.88;;;28.12;100.00
11880;BME280;5999;43.256;27.816;2022-07-01T13:31:25;100089.28;;;28.36;100.00
11880;BME280;5999;43.256;27.816;2022-07-01T13:33:52;100090.31;;;27.60;100.00
11880;BME280;5999;43.256;27.816;2022-07-01T13:36:19;100080.44;;;27.82;100.00
11880;BME280;5999;43.256;27.816;2022-07-01T13:38:46;100090.25;;;28.13;100.00
11880;BME280;5999;43.256;27.816;2022-07-01T13:41:15;100087.75;;;27.97;100.00
11880;BME280;5999;43.256;27.816;2022-07-01T13:43:42;100087.84;;;28.03;100.00
11880;BME280;5999;43.256;27.816;2022-07-01T13:46:09;100093.28;;;27.51;100.00
11880;BME280;5999;43.256;27.816;2022-07-01T13:48:36;100089.16;;;28.08;100.00
11880;BME280;5999;43.256;27.816;2022-07-01T13:51:03;100092.00;;;28.36;100.00
11880;BME280;5999;43.256;27.816;2022-07-01T13:53:30;100084.94;;;28.05;100.00
11880;BME280;5999;43.256;27.816;2022-07-01T13:55:57;100089.31;;;28.21;100.00
11880;BME280;5999;43.256;27.816;2022-07-01T13:58:23;100083.44;;;28.69;100.00
11880;BME280;5999;43.256;27.816;2022-07-01T14:00:50;100091.88;;;28.44;100.00
11880;BME280;5999;43.256;27.816;2022-07-01T14:03:18;100080.50;;;28.49;100.00
11880;BME280;5999;43.256;27.816;2022-07-01T14:05:45;100068.09;;;28.39;100.00
11880;BME280;5999;43.256;27.816;2022-07-01T14:08:12;100076.28;;;28.46;100.00
11880;BME280;5999;43.256;27.816;2022-07-01T14:10:40;100074.84;;;29.51;100.00
11880;BME280;5999;43.256;27.816;2022-07-01T14:13:07;100071.69;;;28.10;100.00
11880;BME280;5999;43.256;27.816;2022-07-01T14:15:34;100068.25;;;28.38;100.00
11880;BME280;5999;43.256;27.816;2022-07-01T14:18:01;100069.00;;;29.04;100.00
11880;BME280;5999;43.256;27.816;2022-07-01T14:20:29;100068.22;;;28.16;100.00
11880;BME280;5999;43.256;27.816;2022-07-01T14:22:56;100072.97;;;28.29;100.00
11880;BME280;5999;43.256;27.816;2022-07-01T14:25:23;100070.66;;;28.62;100.00
11880;BME280;5999;43.256;27.816;2022-07-01T14:27:50;100078.03;;;28.69;100.00
11880;BME280;5999;43.256;27.816;2022-07-01T14:30:17;100078.66;;;28.71;100.00
11880;BME280;5999;43.256;27.816;2022-07-01T14:32:44;100082.72;;;28.60;100.00
11880;BME280;5999;43.256;27.816;2022-07-01T14:35:11;100088.94;;;28.24;100.00
11880;BME280;5999;43.256;27.816;2022-07-01T14:37:38;100079.19;;;27.93;100.00
11880;BME280;5999;43.256;27.816;2022-07-01T14:40:06;100080.28;;;27.99;100.00
11880;BME280;5999;43.256;27.816;2022-07-01T14:42:34;100077.25;;;28.23;100.00
11880;BME280;5999;43.256;27.816;2022-07-01T14:45:03;100074.19;;;28.27;100.00
11880;BME280;5999;43.256;27.816;2022-07-01T14:47:30;100072.63;;;27.88;100.00
11880;BME280;5999;43.256;27.816;2022-07-01T14:49:57;100066.19;;;27.89;100.00
11880;BME280;5999;43.256;27.816;2022-07-01T14:52:23;100067.88;;;28.04;100.00
11880;BME280;5999;43.256;27.816;2022-07-01T14:54:51;100080.19;;;27.92;100.00
11880;BME280;5999;43.256;27.816;2022-07-01T14:57:19;100079.72;;;27.89;100.00
11880;BME280;5999;43.256;27.816;2022-07-01T14:59:46;100075.19;;;27.66;100.00
11880;BME280;5999;43.256;27.816;2022-07-01T15:02:13;100077.31;;;27.94;100.00
11880;BME280;5999;43.256;27.816;2022-07-01T15:04:40;100072.41;;;28.70;100.00
11880;BME280;5999;43.256;27.816;2022-07-01T15:07:07;100064.03;;;27.99;100.00
11880;BME280;5999;43.256;27.816;2022-07-01T15:09:34;100072.81;;;28.01;100.00
11880;BME280;5999;43.256;27.816;2022-07-01T15:12:01;100073.56;;;27.95;100.00
11880;BME280;5999;43.256;27.816;2022-07-01T15:14:28;100078.22;;;28.01;100.00
11880;BME280;5999;43.256;27.816;2022-07-01T15:16:56;100079.41;;;27.69;100.00
11880;BME280;5999;43.256;27.816;2022-07-01T15:19:24;100083.31;;;27.66;100.00
11880;BME280;5999;43.256;27.816;2022-07-01T15:21:51;100076.34;;;27.34;100.00
11880;BME280;5999;43.256;27.816;2022-07-01T15:24:18;100079.03;;;27.57;100.00
11880;BME280;5999;43.256;27.816;2022-07-01T15:26:45;100076.16;;;27.73;100.00
11880;BME280;5999;43.256;27.816;2022-07-01T15:29:13;100079.50;;;27.75;100.00
11880;BME280;5999;43.256;27.816;2022-07-01T15:31:40;100077.16;;;27.72;100.00
11880;BME280;5999;43.256;27.816;2022-07-01T15:34:07;100079.47;;;27.22;100.00
11880;BME280;5999;43.256;27.816;2022-07-01T15:36:34;100079.88;;;27.57;100.00
11880;BME280;5999;43.256;27.816;2022-07-01T15:39:01;100074.09;;;27.60;100.00
11880;BME280;5999;43.256;27.816;2022-07-01T15:41:29;100074.69;;;27.33;100.00
11880;BME280;5999;43.256;27.816;2022-07-01T15:43:58;100078.16;;;27.18;100.00
11880;BME280;5999;43.256;27.816;2022-07-01T15:46:26;100084.47;;;27.11;100.00
11880;BME280;5999;43.256;27.816;2022-07-01T15:48:53;100078.16;;;27.18;100.00
11880;BME280;5999;43.256;27.816;2022-07-01T15:51:20;100072.16;;;27.31;100.00
11880;BME280;5999;43.256;27.816;2022-07-01T15:53:47;100077.22;;;27.34;100.00
11880;BME280;5999;43.256;27.816;2022-07-01T15:56:14;100070.50;;;27.30;100.00
11880;BME280;5999;43.256;27.816;2022-07-01T15:58:41;100073.13;;;27.15;100.00
11880;BME280;5999;43.256;27.816;2022-07-01T16:01:07;100071.66;;;27.51;100.00
11880;BME280;5999;43.256;27.816;2022-07-01T16:03:35;100073.78;;;27.40;100.00
11880;BME280;5999;43.256;27.816;2022-07-01T16:06:05;100073.97;;;27.54;100.00
11880;BME280;5999;43.256;27.816;2022-07-01T16:08:36;100076.25;;;27.27;100.00
11880;BME280;5999;43.256;27.816;2022-07-01T16:11:07;100082.16;;;27.08;100.00
11880;BME280;5999;43.256;27.816;2022-07-01T16:13:36;100075.09;;;27.44;100.00
11880;BME280;5999;43.256;27.816;2022-07-01T16:16:04;100084.66;;;27.09;100.00
11880;BME280;5999;43.256;27.816;2022-07-01T16:18:32;100076.97;;;27.21;100.00
11880;BME280;5999;43.256;27.816;2022-07-01T16:21:01;100070.97;;;27.11;100.00
11880;BME280;5999;43.256;27.816;2022-07-01T16:23:31;100069.84;;;27.28;100.00
11880;BME280;5999;43.256;27.816;2022-07-01T16:25:59;100071.69;;;27.28;100.00
11880;BME280;5999;43.256;27.816;2022-07-01T16:28:27;100071.44;;;27.14;100.00
11880;BME280;5999;43.256;27.816;2022-07-01T16:30:54;100075.91;;;27.30;100.00
11880;BME280;5999;43.256;27.816;2022-07-01T16:33:22;100069.69;;;27.21;100.00
11880;BME280;5999;43.256;27.816;2022-07-01T16:36:00;100089.13;;;27.25;100.00
11880;BME280;5999;43.256;27.816;2022-07-01T16:38:40;100077.34;;;27.18;100.00
11880;BME280;5999;43.256;27.816;2022-07-01T16:41:16;100073.66;;;27.11;100.00
11880;BME280;5999;43.256;27.816;2022-07-01T16:43:53;100084.31;;;26.89;100.00
11880;BME280;5999;43.256;27.816;2022-07-01T16:46:22;100074.75;;;26.47;100.00
11880;BME280;5999;43.256;27.816;2022-07-01T16:48:54;100075.41;;;26.57;100.00
11880;BME280;5999;43.256;27.816;2022-07-01T16:51:30;100081.63;;;26.58;100.00
11880;BME280;5999;43.256;27.816;2022-07-01T16:53:58;100076.91;;;26.52;100.00
11880;BME280;5999;43.256;27.816;2022-07-01T16:56:27;100071.81;;;26.88;100.00
11880;BME280;5999;43.256;27.816;2022-07-01T16:58:58;100065.75;;;26.86;100.00
11880;BME280;5999;43.256;27.816;2022-07-01T17:01:26;100047.03;;;26.53;100.00
11880;BME280;5999;43.256;27.816;2022-07-01T17:03:53;100054.47;;;26.51;100.00
11880;BME280;5999;43.256;27.816;2022-07-01T17:06:20;100060.41;;;26.78;100.00
11880;BME280;5999;43.256;27.816;2022-07-01T17:08:48;100069.06;;;26.73;100.00
11880;BME280;5999;43.256;27.816;2022-07-01T17:11:16;100075.06;;;26.83;100.00
11880;BME280;5999;43.256;27.816;2022-07-01T17:13:45;100078.59;;;26.84;100.00
11880;BME280;5999;43.256;27.816;2022-07-01T17:16:13;100071.47;;;26.91;100.00
11880;BME280;5999;43.256;27.816;2022-07-01T17:18:43;100070.06;;;26.72;100.00
11880;BME280;5999;43.256;27.816;2022-07-01T17:21:10;100075.06;;;26.60;100.00
11880;BME280;5999;43.256;27.816;2022-07-01T17:23:44;100073.13;;;26.69;100.00
11880;BME280;5999;43.256;27.816;2022-07-01T17:26:13;100072.13;;;26.93;100.00
11880;BME280;5999;43.256;27.816;2022-07-01T17:28:45;100065.69;;;26.94;100.00
11880;BME280;5999;43.256;27.816;2022-07-01T17:31:20;100072.41;;;26.98;100.00
11880;BME280;5999;43.256;27.816;2022-07-01T17:33:52;100082.72;;;26.95;100.00
11880;BME280;5999;43.256;27.816;2022-07-01T17:36:23;100084.06;;;26.99;100.00
11880;BME280;5999;43.256;27.816;2022-07-01T17:38:54;100094.09;;;26.90;100.00
11880;BME280;5999;43.256;27.816;2022-07-01T17:41:30;100092.16;;;26.99;100.00
11880;BME280;5999;43.256;27.816;2022-07-01T17:44:03;100096.19;;;26.80;100.00
11880;BME280;5999;43.256;27.816;2022-07-01T17:46:32;100090.44;;;26.83;100.00
11880;BME280;5999;43.256;27.816;2022-07-01T17:49:00;100092.28;;;26.51;100.00
11880;BME280;5999;43.256;27.816;2022-07-01T17:51:28;100099.00;;;26.55;100.00
11880;BME280;5999;43.256;27.816;2022-07-01T17:53:56;100100.28;;;26.36;100.00
11880;BME280;5999;43.256;27.816;2022-07-01T17:56:24;100097.03;;;26.49;100.00
11880;BME280;5999;43.256;27.816;2022-07-01T17:58:53;100096.34;;;26.47;100.00
11880;BME280;5999;43.256;27.816;2022-07-01T18:01:22;100102.75;;;26.54;100.00
11880;BME280;5999;43.256;27.816;2022-07-01T18:03:49;100098.00;;;26.56;100.00
11880;BME280;5999;43.256;27.816;2022-07-01T18:06:17;100093.75;;;26.62;100.00
11880;BME280;5999;43.256;27.816;2022-07-01T18:08:46;100090.56;;;26.67;100.00
11880;BME280;5999;43.256;27.816;2022-07-01T18:11:17;100106.44;;;26.53;100.00
11880;BME280;5999;43.256;27.816;2022-07-01T18:14:02;100108.47;;;26.59;100.00
11880;BME280;5999;43.256;27.816;2022-07-01T18:16:52;100108.41;;;26.68;100.00
11880;BME280;5999;43.256;27.816;2022-07-01T18:19:30;100108.84;;;26.48;100.00
11880;BME280;5999;43.256;27.816;2022-07-01T18:22:03;100110.19;;;26.52;100.00
11880;BME280;5999;43.256;27.816;2022-07-01T18:24:36;100112.56;;;26.47;100.00
11880;BME280;5999;43.256;27.816;2022-07-01T18:27:08;100112.28;;;26.34;100.00
11880;BME280;5999;43.256;27.816;2022-07-01T18:29:36;100116.00;;;26.33;100.00
11880;BME280;5999;43.256;27.816;2022-07-01T18:32:07;100126.34;;;26.13;100.00
11880;BME280;5999;43.256;27.816;2022-07-01T18:34:47;100129.41;;;26.10;100.00
11880;BME280;5999;43.256;27.816;2022-07-01T18:37:18;100134.63;;;26.11;100.00
11880;BME280;5999;43.256;27.816;2022-07-01T18:39:46;100135.47;;;26.20;100.00
11880;BME280;5999;43.256;27.816;2022-07-01T18:42:13;100137.59;;;26.33;100.00
11880;BME280;5999;43.256;27.816;2022-07-01T18:44:40;100149.09;;;26.26;100.00
11880;BME280;5999;43.256;27.816;2022-07-01T18:47:07;100156.84;;;26.30;100.00
11880;BME280;5999;43.256;27.816;2022-07-01T18:49:34;100164.09;;;26.21;100.00
11880;BME280;5999;43.256;27.816;2022-07-01T18:52:02;100164.44;;;26.26;100.00
11880;BME280;5999;43.256;27.816;2022-07-01T18:54:29;100169.00;;;26.25;100.00
11880;BME280;5999;43.256;27.816;2022-07-01T18:56:56;100176.41;;;26.23;100.00
11880;BME280;5999;43.256;27.816;2022-07-01T18:59:24;100172.72;;;26.24;100.00
11880;BME280;5999;43.256;27.816;2022-07-01T19:01:51;100183.66;;;26.23;100.00
11880;BME280;5999;43.256;27.816;2022-07-01T19:04:18;100184.38;;;26.17;100.00
11880;BME280;5999;43.256;27.816;2022-07-01T19:06:45;100185.72;;;26.13;100.00
11880;BME280;5999;43.256;27.816;2022-07-01T19:09:12;100187.09;;;26.00;100.00
11880;BME280;5999;43.256;27.816;2022-07-01T19:11:39;100189.13;;;25.98;100.00
11880;BME280;5999;43.256;27.816;2022-07-01T19:14:06;100196.56;;;25.96;100.00
11880;BME280;5999;43.256;27.816;2022-07-01T19:16:33;100193.69;;;25.98;100.00
11880;BME280;5999;43.256;27.816;2022-07-01T19:19:00;100197.72;;;26.02;100.00
11880;BME280;5999;43.256;27.816;2022-07-01T19:21:27;100201.09;;;26.04;100.00
11880;BME280;5999;43.256;27.816;2022-07-01T19:23:57;100213.56;;;26.05;100.00
11880;BME280;5999;43.256;27.816;2022-07-01T19:26:24;100205.81;;;26.02;100.00
11880;BME280;5999;43.256;27.816;2022-07-01T19:28:51;100204.47;;;25.98;100.00
11880;BME280;5999;43.256;27.816;2022-07-01T19:31:18;100203.66;;;25.97;100.00
11880;BME280;5999;43.256;27.816;2022-07-01T19:33:45;100207.31;;;25.80;100.00
11880;BME280;5999;43.256;27.816;2022-07-01T19:36:12;100203.13;;;25.77;100.00
11880;BME280;5999;43.256;27.816;2022-07-01T19:38:40;100204.78;;;25.78;100.00
11880;BME280;5999;43.256;27.816;2022-07-01T19:41:07;100209.69;;;25.75;100.00
11880;BME280;5999;43.256;27.816;2022-07-01T19:43:34;100206.81;;;25.76;100.00
11880;BME280;5999;43.256;27.816;2022-07-01T19:46:00;100206.50;;;25.79;100.00
11880;BME280;5999;43.256;27.816;2022-07-01T19:48:27;100211.88;;;25.79;100.00
11880;BME280;5999;43.256;27.816;2022-07-01T19:50:57;100206.13;;;25.74;100.00
11880;BME280;5999;43.256;27.816;2022-07-01T19:53:24;100208.69;;;25.67;100.00
11880;BME280;5999;43.256;27.816;2022-07-01T19:55:52;100204.47;;;25.65;100.00
11880;BME280;5999;43.256;27.816;2022-07-01T19:58:19;100210.38;;;25.69;100.00
11880;BME280;5999;43.256;27.816;2022-07-01T20:00:46;100198.41;;;25.63;100.00
11880;BME280;5999;43.256;27.816;2022-07-01T20:03:13;100197.56;;;25.54;100.00
11880;BME280;5999;43.256;27.816;2022-07-01T20:05:39;100199.91;;;25.49;100.00
11880;BME280;5999;43.256;27.816;2022-07-01T20:08:06;100196.03;;;25.35;100.00
11880;BME280;5999;43.256;27.816;2022-07-01T20:10:33;100195.69;;;25.30;100.00
11880;BME280;5999;43.256;27.816;2022-07-01T20:13:01;100188.25;;;25.16;100.00
11880;BME280;5999;43.256;27.816;2022-07-01T20:15:28;100190.91;;;25.08;100.00
11880;BME280;5999;43.256;27.816;2022-07-01T20:17:56;100185.53;;;25.08;100.00
11880;BME280;5999;43.256;27.816;2022-07-01T20:20:24;100185.84;;;25.04;100.00
11880;BME280;5999;43.256;27.816;2022-07-01T20:22:51;100180.47;;;25.04;100.00
11880;BME280;5999;43.256;27.816;2022-07-01T20:25:17;100179.09;;;25.00;100.00
11880;BME280;5999;43.256;27.816;2022-07-01T20:27:45;100184.84;;;24.97;100.00
11880;BME280;5999;43.256;27.816;2022-07-01T20:30:13;100191.41;;;25.03;100.00
11880;BME280;5999;43.256;27.816;2022-07-01T20:32:40;100194.28;;;25.01;100.00
11880;BME280;5999;43.256;27.816;2022-07-01T20:35:07;100186.00;;;24.95;100.00
11880;BME280;5999;43.256;27.816;2022-07-01T20:37:34;100187.16;;;24.92;100.00
11880;BME280;5999;43.256;27.816;2022-07-01T20:40:01;100193.88;;;24.88;100.00
11880;BME280;5999;43.256;27.816;2022-07-01T20:42:28;100191.13;;;24.72;100.00
11880;BME280;5999;43.256;27.816;2022-07-01T20:44:55;100198.56;;;24.78;100.00
11880;BME280;5999;43.256;27.816;2022-07-01T20:47:23;100196.56;;;24.88;100.00
11880;BME280;5999;43.256;27.816;2022-07-01T20:49:49;100198.28;;;24.89;100.00
11880;BME280;5999;43.256;27.816;2022-07-01T20:52:16;100198.28;;;24.89;100.00
11880;BME280;5999;43.256;27.816;2022-07-01T20:54:43;100199.94;;;24.82;100.00
11880;BME280;5999;43.256;27.816;2022-07-01T20:57:10;100193.56;;;24.83;100.00
11880;BME280;5999;43.256;27.816;2022-07-01T20:59:37;100198.56;;;24.78;100.00
11880;BME280;5999;43.256;27.816;2022-07-01T21:02:04;100197.34;;;24.72;100.00
11880;BME280;5999;43.256;27.816;2022-07-01T21:04:32;100207.00;;;24.75;100.00
11880;BME280;5999;43.256;27.816;2022-07-01T21:06:59;100197.84;;;24.67;100.00
11880;BME280;5999;43.256;27.816;2022-07-01T21:09:25;100198.22;;;24.73;100.00
11880;BME280;5999;43.256;27.816;2022-07-01T21:11:52;100204.56;;;24.63;100.00
11880;BME280;5999;43.256;27.816;2022-07-01T21:14:19;100206.97;;;24.66;100.00
11880;BME280;5999;43.256;27.816;2022-07-01T21:16:46;100199.19;;;24.63;100.00
11880;BME280;5999;43.256;27.816;2022-07-01T21:19:13;100202.53;;;24.57;100.00
11880;BME280;5999;43.256;27.816;2022-07-01T21:21:40;100199.66;;;24.51;100.00
11880;BME280;5999;43.256;27.816;2022-07-01T21:24:07;100198.47;;;24.53;100.00